createdAt,value
2023-03-06T00:05:33.602Z,99740.72
2023-03-06T00:15:35.754Z,99736.63
2023-03-06T00:25:38.758Z,99725.66
2023-03-06T00:35:41.432Z,99713.09
2023-03-06T00:45:43.633Z,99704.72
2023-03-06T00:55:45.905Z,99685.88
2023-03-06T01:05:48.049Z,99674.59
2023-03-06T01:15:50.190Z,99669.41
2023-03-06T01:25:52.327Z,99660.59
2023-03-06T01:35:55.628Z,99643.78
2023-03-06T01:46:18.415Z,99645.72
2023-03-06T01:56:20.778Z,99635.81
2023-03-06T02:06:23.090Z,99618.94
2023-03-06T02:16:28.972Z,99612.06
2023-03-06T02:26:31.997Z,99610.06
2023-03-06T02:36:38.505Z,99596.38
2023-03-06T02:46:42.455Z,99582.69
2023-03-06T02:56:45.847Z,99572.34
2023-03-06T03:06:48.030Z,99562.72
2023-03-06T03:16:50.334Z,99562.81
2023-03-06T03:26:52.993Z,99556.78
2023-03-06T03:36:57.756Z,99537.97
2023-03-06T03:46:59.960Z,99543.88
2023-03-06T03:57:02.182Z,99531.06
2023-03-06T04:07:09.149Z,99527.25
2023-03-06T04:17:12.235Z,99525.22
2023-03-06T04:27:14.823Z,99516.03
2023-03-06T04:37:22.373Z,99502.44
2023-03-06T04:47:24.851Z,99481.81
2023-03-06T04:57:26.945Z,99482.88
2023-03-06T05:07:29.021Z,99478.25
2023-03-06T05:17:31.087Z,99479.38
2023-03-06T05:27:33.501Z,99471.09
2023-03-06T05:37:35.569Z,99479.78
2023-03-06T05:47:37.904Z,99465.59
2023-03-06T05:57:40.039Z,99459.88
2023-03-06T06:07:42.390Z,99464.19
2023-03-06T06:17:44.701Z,99453.25
2023-03-06T06:27:46.759Z,99458.72
2023-03-06T06:37:49.053Z,99447.69
2023-03-06T06:47:51.251Z,99446.38
2023-03-06T06:57:53.392Z,99450.78
2023-03-06T07:07:55.477Z,99440.31
2023-03-06T07:17:57.627Z,99453.56
2023-03-06T07:27:59.711Z,99453.34
2023-03-06T07:38:01.874Z,99460.78
2023-03-06T07:48:05.627Z,99450.03
2023-03-06T07:58:08.506Z,99468.91
2023-03-06T08:08:11.125Z,99468.72
2023-03-06T08:18:13.161Z,99459.84
2023-03-06T08:28:15.265Z,99452.56
2023-03-06T08:38:17.430Z,99458.22
2023-03-06T08:48:19.526Z,99461.28
2023-03-06T08:58:21.604Z,99450.47
2023-03-06T09:08:23.871Z,99455.53
2023-03-06T09:18:25.988Z,99454.19
2023-03-06T09:28:28.464Z,99472.38
2023-03-06T09:38:30.537Z,99462.41
2023-03-06T09:48:43.703Z,99463.50
2023-03-06T09:58:51.388Z,99461.72
2023-03-06T10:08:59.400Z,99460.47
2023-03-06T10:19:10.667Z,99462.50
2023-03-06T10:29:12.634Z,99454.56
2023-03-06T10:39:20.205Z,99461.50
2023-03-06T10:49:36.602Z,99464.31
2023-03-06T10:59:51.967Z,99467.19
2023-03-06T11:09:57.002Z,99469.31
2023-03-06T11:20:14.504Z,99474.03
2023-03-06T11:30:20.426Z,99458.16
2023-03-06T11:40:36.707Z,99463.44
2023-03-06T11:50:42.336Z,99463.00
2023-03-06T12:00:57.943Z,99454.88
2023-03-06T12:11:05.925Z,99444.56
2023-03-06T12:21:35.367Z,99420.13
2023-03-06T12:32:00.666Z,99417.56
2023-03-06T12:42:22.899Z,99400.59
2023-03-06T12:52:30.522Z,99386.34
2023-03-06T13:02:39.679Z,99384.88
2023-03-06T13:12:49.743Z,99393.81
2023-03-06T13:22:51.829Z,99373.25
2023-03-06T13:32:55.100Z,99364.75
2023-03-06T13:43:03.854Z,99374.78
2023-03-06T13:53:24.358Z,99367.59
2023-03-06T14:04:04.977Z,99352.03
2023-03-06T14:14:09.516Z,99338.75
2023-03-06T14:24:16.620Z,99333.72
2023-03-06T14:34:22.536Z,99328.00
2023-03-06T14:44:26.415Z,99309.78
2023-03-06T14:54:32.563Z,99312.81
2023-03-06T15:04:40.933Z,99299.44
2023-03-06T15:14:57.341Z,99304.63
2023-03-06T15:25:19.771Z,99293.66
2023-03-06T15:35:31.808Z,99286.47
2023-03-06T15:45:34.874Z,99277.09
2023-03-06T15:55:37.299Z,99265.47
2023-03-06T16:05:39.480Z,99266.56
2023-03-06T16:15:47.378Z,99258.72
2023-03-06T16:25:49.636Z,99263.53
2023-03-06T16:35:52.177Z,99274.91
2023-03-06T16:45:54.437Z,99280.00
2023-03-06T16:55:56.628Z,99266.75
2023-03-06T17:05:58.705Z,99250.19
2023-03-06T17:16:01.972Z,99249.66
2023-03-06T17:26:12.794Z,99236.66
2023-03-06T17:36:16.020Z,99249.84
2023-03-06T17:46:18.422Z,99253.25
2023-03-06T17:56:20.601Z,99244.19
2023-03-06T18:06:23.278Z,99249.50
2023-03-06T18:16:26.565Z,99241.78
2023-03-06T18:26:29.787Z,99232.03
2023-03-06T18:36:32.789Z,99225.88
2023-03-06T18:46:37.568Z,99221.47
2023-03-06T18:56:44.221Z,99206.66
2023-03-06T19:06:46.409Z,99185.31
2023-03-06T19:16:48.609Z,99173.53
2023-03-06T19:26:50.942Z,99171.16
2023-03-06T19:36:53.077Z,99156.50
2023-03-06T19:46:55.248Z,99146.31
2023-03-06T19:57:04.086Z,99151.53
2023-03-06T20:07:06.644Z,99129.63
2023-03-06T20:17:08.943Z,99115.94
2023-03-06T20:27:11.320Z,99103.25
2023-03-06T20:37:13.381Z,99096.56
2023-03-06T20:47:15.530Z,99070.25
2023-03-06T20:57:17.781Z,99060.44
2023-03-06T21:07:19.915Z,99047.97
2023-03-06T21:17:22.148Z,99045.91
2023-03-06T21:27:24.379Z,99033.88
2023-03-06T21:37:26.523Z,99020.72
2023-03-06T21:47:28.566Z,98987.78
2023-03-06T21:57:32.776Z,98990.91
2023-03-06T22:07:36.315Z,98963.00
2023-03-06T22:17:39.678Z,98954.88
2023-03-06T22:27:41.735Z,98934.53
2023-03-06T22:37:43.886Z,98927.41
2023-03-06T22:47:45.948Z,98889.00
2023-03-06T22:57:48.058Z,98877.22
2023-03-06T23:07:50.149Z,98870.94
2023-03-06T23:17:52.223Z,98862.16
2023-03-06T23:28:13.095Z,98849.03
2023-03-06T23:38:15.211Z,98840.41
2023-03-06T23:48:17.295Z,98829.41
2023-03-06T23:58:19.590Z,98837.88
